John H. — WAC6768 — position and weather

sailwx.info

Track history (hours):
 
Tides and Currents Weather Stations Pressure Air Temp Water Temp Dewpoint Dewpoint Depression Visibility Wind Speed Wind Dir Waves Ship Positions

John H.

Owner: CROSS SOUND FERRY SERVICE INC, NEW LOUDON, CT. More information available from US FCC via Universal Licensing System and Coast Guard Vessel Documentation Center.

Last reported at 2014-Dec-08 01:32 UTC. Time now 2014-Dec-18 10:31 UTC.
Position N 41°21' W 072°06'.
Warning: this ship's position is 10 days out of date.

Length 70 m.

Type: Passenger vessel. MMSI: 366934890.

Date/timePositionNaut miles runAvg speedWind from/ knotsBaromVisibWave heightAir tempDewpointWater temp
2014-Dec-08 01:32N 41°21' W 072°06'9 9.0
2014-Dec-08 00:33N 41°13' W 072°10'5 5.2
2014-Dec-07 23:33N 41°09' W 072°14'8 8.3
2014-Dec-07 22:34N 41°16' W 072°08'6 5.8
2014-Dec-07 21:33N 41°21' W 072°06'9 8.9
2014-Dec-07 20:33N 41°13' W 072°10'5 5.1
2014-Dec-07 19:33N 41°09' W 072°14'10 9.8
2014-Dec-07 18:33N 41°17' W 072°06'5 4.6
2014-Dec-07 17:33N 41°21' W 072°05'1110.7
2014-Dec-07 16:33N 41°12' W 072°12'2 1.6
2014-Dec-07 15:33N 41°11' W 072°14'1212.2
2014-Dec-07 14:33N 41°21' W 072°05'5 5.4
2014-Dec-07 13:33N 41°16' W 072°07'9 8.9
2014-Dec-07 12:33N 41°09' W 072°14'1 1.5
2014-Dec-07 11:34N 41°10' W 072°13'1212.3
2014-Dec-07 10:33N 41°21' W 072°06'0 0.0
2014-Dec-07 01:34N 41°21' W 072°06'10 9.9
2014-Dec-07 00:33N 41°12' W 072°11'4 4.0
2014-Dec-06 23:34N 41°09' W 072°14'8 8.3
2014-Dec-06 22:34N 41°16' W 072°08'6 5.8
2014-Dec-06 21:33N 41°21' W 072°06'9 9.2
2014-Dec-06 20:34N 41°13' W 072°10'5 4.8
2014-Dec-06 19:33N 41°09' W 072°14'9 8.7
2014-Dec-06 18:33N 41°16' W 072°07'5 5.5
2014-Dec-06 17:33N 41°21' W 072°06'8 8.2
2014-Dec-06 16:33N 41°14' W 072°10'6 5.7
2014-Dec-06 15:33N 41°09' W 072°14'1111.1
2014-Dec-06 14:33N 41°18' W 072°05'0 0.3
2014-Dec-06 13:34N 41°18' W 072°05'1111.0
2014-Dec-06 12:34N 41°09' W 072°14'0 0.0
2014-Dec-06 02:25N 41°09' W 072°14'7 8.1
2014-Dec-06 01:34N 41°15' W 072°09'7 6.9
2014-Dec-06 00:34N 41°21' W 072°05'10 9.5
2014-Dec-05 23:33N 41°13' W 072°12'4 4.3
2014-Dec-05 22:33N 41°09' W 072°14'9 8.7
2014-Dec-05 21:33N 41°16' W 072°07'5 5.4
2014-Dec-05 20:33N 41°21' W 072°06'9 9.5
2014-Dec-05 19:33N 41°13' W 072°11'4 4.4
2014-Dec-05 18:33N 41°09' W 072°14'9 8.8
2014-Dec-05 17:33N 41°16' W 072°07'5 5.3
2014-Dec-05 16:33N 41°21' W 072°06'10 9.6
2014-Dec-05 15:33N 41°13' W 072°11'4 4.3
2014-Dec-05 14:34N 41°09' W 072°14'9 8.6
2014-Dec-05 13:34N 41°16' W 072°07'5 5.4
2014-Dec-05 12:33N 41°21' W 072°06'0 0.0
2014-Dec-05 01:30N 41°21' W 072°06'9 9.7
2014-Dec-05 00:34N 41°13' W 072°10'5 4.9
2014-Dec-04 23:33N 41°09' W 072°14'9 8.6
2014-Dec-04 22:33N 41°16' W 072°07'5 5.5
2014-Dec-04 21:33N 41°21' W 072°06'9 9.0
2014-Dec-04 20:33N 41°13' W 072°10'5 5.0
2014-Dec-04 19:33N 41°09' W 072°14'8 8.2
2014-Dec-04 18:33N 41°16' W 072°08'6 5.8
2014-Dec-04 17:33N 41°21' W 072°06'8 8.2
2014-Dec-04 16:33N 41°14' W 072°09'5 4.7
2014-Dec-04 15:34N 41°10' W 072°13'1110.9
2014-Dec-04 14:34N 41°19' W 072°05'0 0.5
2014-Dec-04 13:33N 41°18' W 072°05'1211.6
2014-Dec-04 12:33N 41°09' W 072°14'0 0.0
2014-Dec-04 01:34N 41°09' W 072°14'9 9.0
2014-Dec-04 00:34N 41°16' W 072°07'5 5.2
2014-Dec-03 23:34N 41°21' W 072°06'9 9.2
2014-Dec-03 22:34N 41°13' W 072°11'5 4.7
2014-Dec-03 21:33N 41°09' W 072°14'10 9.8
2014-Dec-03 20:33N 41°17' W 072°06'5 4.6
2014-Dec-03 19:33N 41°21' W 072°06'9 8.6
2014-Dec-03 18:33N 41°13' W 072°10'5 5.4
2014-Dec-03 17:33N 41°09' W 072°14'9 8.5
2014-Dec-03 16:33N 41°16' W 072°07'6 5.6
2014-Dec-03 15:33N 41°21' W 072°06'9 9.2
2014-Dec-03 14:33N 41°13' W 072°10'5 4.7
2014-Dec-03 13:33N 41°09' W 072°14'10 9.7
2014-Dec-03 12:34N 41°17' W 072°06'5 4.6
2014-Dec-03 11:34N 41°21' W 072°06'0 0.0
2014-Dec-03 01:33N 41°21' W 072°05'9 9.0
2014-Dec-03 00:33N 41°14' W 072°12'5 4.9
2014-Dec-02 23:34N 41°09' W 072°14'9 8.7
2014-Dec-02 22:33N 41°16' W 072°07'6 5.5
2014-Dec-02 21:34N 41°21' W 072°05'10 9.6
2014-Dec-02 20:33N 41°13' W 072°12'4 4.2
2014-Dec-02 19:33N 41°09' W 072°14'8 8.2
2014-Dec-02 18:33N 41°16' W 072°08'6 5.9
2014-Dec-02 17:33N 41°21' W 072°06'10 9.6
2014-Dec-02 16:33N 41°13' W 072°11'3 3.3
2014-Dec-02 15:33N 41°10' W 072°13'1211.6
2014-Dec-02 14:33N 41°20' W 072°05'1 1.2
2014-Dec-02 13:33N 41°19' W 072°05'1211.7
2014-Dec-02 12:33N 41°09' W 072°14'0 0.0
2014-Dec-02 01:34N 41°09' W 072°14'9 8.7
2014-Dec-02 00:33N 41°16' W 072°07'5 5.5
2014-Dec-01 23:33N 41°21' W 072°06'0 0.0
2014-Dec-01 22:34N 41°21' W 072°06'9 9.3
2014-Dec-01 21:33N 41°13' W 072°11'5 4.6
2014-Dec-01 20:34N 41°09' W 072°14'9 8.5
2014-Dec-01 19:33N 41°16' W 072°07'6 5.6
2014-Dec-01 18:33N 41°21' W 072°06'9 9.1
2014-Dec-01 17:33N 41°13' W 072°10'5 4.9
2014-Dec-01 16:33N 41°09' W 072°14'9 8.7
2014-Dec-01 15:33N 41°16' W 072°07'5 5.4
2014-Dec-01 14:33N 41°21' W 072°06'9 8.8
2014-Dec-01 13:33N 41°13' W 072°10'5 5.1
2014-Dec-01 12:33N 41°09' W 072°14'0 0.0
2014-Dec-01 03:33N 41°09' W 072°14'7 7.3
2014-Dec-01 02:33N 41°15' W 072°09'7 6.6
2014-Dec-01 01:33N 41°21' W 072°06'10 9.9
2014-Dec-01 00:34N 41°12' W 072°11'4 4.0
2014-Nov-30 23:33N 41°09' W 072°14'10 9.9
2014-Nov-30 22:33N 41°17' W 072°06'4 4.5
2014-Nov-30 21:33N 41°21' W 072°06'9 8.8
2014-Nov-30 20:33N 41°13' W 072°10'5 5.1
2014-Nov-30 19:33N 41°09' W 072°14'8 8.1
2014-Nov-30 18:33N 41°16' W 072°08'6 5.9
2014-Nov-30 17:33N 41°21' W 072°06'9 9.0
2014-Nov-30 16:33N 41°13' W 072°10'5 4.9
2014-Nov-30 15:34N 41°09' W 072°14'9 8.8
2014-Nov-30 14:34N 41°16' W 072°07'5 5.3
2014-Nov-30 13:34N 41°21' W 072°06'9 8.6
2014-Nov-30 12:33N 41°13' W 072°10'5 5.4
2014-Nov-30 11:33N 41°09' W 072°14'0 0.0
2014-Nov-30 03:09N 41°09' W 072°14'5 8.8
2014-Nov-30 02:33N 41°14' W 072°11'9 8.5
2014-Nov-30 01:33N 41°21' W 072°06'8 8.4
2014-Nov-30 00:34N 41°13' W 072°09'6 5.7
2014-Nov-29 23:33N 41°09' W 072°14'9 8.7
2014-Nov-29 22:34N 41°16' W 072°07'5 5.4
2014-Nov-29 21:33N 41°21' W 072°06'9 8.9
2014-Nov-29 20:34N 41°13' W 072°10'5 5.1
2014-Nov-29 19:34N 41°09' W 072°14'10 9.8
2014-Nov-29 18:33N 41°17' W 072°06'4 4.4
2014-Nov-29 17:33N 41°21' W 072°06'1010.0
2014-Nov-29 16:33N 41°12' W 072°11'4 3.8
2014-Nov-29 15:33N 41°09' W 072°14'8 8.1
2014-Nov-29 14:33N 41°16' W 072°08'6 6.0
2014-Nov-29 13:33N 41°21' W 072°06'8 8.4
2014-Nov-29 12:33N 41°13' W 072°09'6 5.7
2014-Nov-29 11:33N 41°09' W 072°14'0 0.0
2014-Nov-29 03:16N 41°09' W 072°14'5 7.5
2014-Nov-29 02:34N 41°14' W 072°11'9 8.5
2014-Nov-29 01:34N 41°21' W 072°06'9 8.8
2014-Nov-29 00:33N 41°13' W 072°10'5 5.1
2014-Nov-28 23:33N 41°09' W 072°14'9 9.3
2014-Nov-28 22:33N 41°16' W 072°07'5 4.9
2014-Nov-28 21:33N 41°21' W 072°06'10 9.8
2014-Nov-28 20:34N 41°12' W 072°11'4 4.1
2014-Nov-28 19:34N 41°09' W 072°14'10 9.7
2014-Nov-28 18:34N 41°17' W 072°06'5 4.5
2014-Nov-28 17:33N 41°21' W 072°06'9 9.0
2014-Nov-28 16:33N 41°13' W 072°10'5 4.9
2014-Nov-28 15:33N 41°09' W 072°14'8 8.4
2014-Nov-28 14:33N 41°16' W 072°08'6 5.7
2014-Nov-28 13:33N 41°21' W 072°06'9 8.7
2014-Nov-28 12:33N 41°13' W 072°10'5 5.3
2014-Nov-28 11:33N 41°09' W 072°14'0 0.0
2014-Nov-28 03:10N 41°09' W 072°14'5 7.7
2014-Nov-28 02:33N 41°13' W 072°11'9 9.1
2014-Nov-28 01:33N 41°21' W 072°06'  
Track history (hours):
 
Tides and Currents Weather Stations Pressure Air Temp Water Temp Dewpoint Dewpoint Depression Visibility Wind Speed Wind Dir Waves Ship Positions

John H.

Owner: CROSS SOUND FERRY SERVICE INC, NEW LOUDON, CT. More information available from US FCC via Universal Licensing System and Coast Guard Vessel Documentation Center.

Last reported at 2014-Dec-08 01:32 UTC. Time now 2014-Dec-18 10:31 UTC.
Position N 41°21' W 072°06'.
Warning: this ship's position is 10 days out of date.

Length 70 m.

Type: Passenger vessel. MMSI: 366934890.

Date/timePositionNaut miles runAvg speedWind from/ knotsBaromVisibWave heightAir tempDewpointWater temp
2014-Dec-08 01:32N 41°21' W 072°06'9 9.0
2014-Dec-08 00:33N 41°13' W 072°10'5 5.2
2014-Dec-07 23:33N 41°09' W 072°14'8 8.3
2014-Dec-07 22:34N 41°16' W 072°08'6 5.8
2014-Dec-07 21:33N 41°21' W 072°06'9 8.9
2014-Dec-07 20:33N 41°13' W 072°10'5 5.1
2014-Dec-07 19:33N 41°09' W 072°14'10 9.8
2014-Dec-07 18:33N 41°17' W 072°06'5 4.6
2014-Dec-07 17:33N 41°21' W 072°05'1110.7
2014-Dec-07 16:33N 41°12' W 072°12'2 1.6
2014-Dec-07 15:33N 41°11' W 072°14'1212.2
2014-Dec-07 14:33N 41°21' W 072°05'5 5.4
2014-Dec-07 13:33N 41°16' W 072°07'9 8.9
2014-Dec-07 12:33N 41°09' W 072°14'1 1.5
2014-Dec-07 11:34N 41°10' W 072°13'1212.3
2014-Dec-07 10:33N 41°21' W 072°06'0 0.0
2014-Dec-07 01:34N 41°21' W 072°06'10 9.9
2014-Dec-07 00:33N 41°12' W 072°11'4 4.0
2014-Dec-06 23:34N 41°09' W 072°14'8 8.3
2014-Dec-06 22:34N 41°16' W 072°08'6 5.8
2014-Dec-06 21:33N 41°21' W 072°06'9 9.2
2014-Dec-06 20:34N 41°13' W 072°10'5 4.8
2014-Dec-06 19:33N 41°09' W 072°14'9 8.7
2014-Dec-06 18:33N 41°16' W 072°07'5 5.5
2014-Dec-06 17:33N 41°21' W 072°06'8 8.2
2014-Dec-06 16:33N 41°14' W 072°10'6 5.7
2014-Dec-06 15:33N 41°09' W 072°14'1111.1
2014-Dec-06 14:33N 41°18' W 072°05'0 0.3
2014-Dec-06 13:34N 41°18' W 072°05'1111.0
2014-Dec-06 12:34N 41°09' W 072°14'0 0.0
2014-Dec-06 02:25N 41°09' W 072°14'7 8.1
2014-Dec-06 01:34N 41°15' W 072°09'7 6.9
2014-Dec-06 00:34N 41°21' W 072°05'10 9.5
2014-Dec-05 23:33N 41°13' W 072°12'4 4.3
2014-Dec-05 22:33N 41°09' W 072°14'9 8.7
2014-Dec-05 21:33N 41°16' W 072°07'5 5.4
2014-Dec-05 20:33N 41°21' W 072°06'9 9.5
2014-Dec-05 19:33N 41°13' W 072°11'4 4.4
2014-Dec-05 18:33N 41°09' W 072°14'9 8.8
2014-Dec-05 17:33N 41°16' W 072°07'5 5.3
2014-Dec-05 16:33N 41°21' W 072°06'10 9.6
2014-Dec-05 15:33N 41°13' W 072°11'4 4.3
2014-Dec-05 14:34N 41°09' W 072°14'9 8.6
2014-Dec-05 13:34N 41°16' W 072°07'5 5.4
2014-Dec-05 12:33N 41°21' W 072°06'0 0.0
2014-Dec-05 01:30N 41°21' W 072°06'9 9.7
2014-Dec-05 00:34N 41°13' W 072°10'5 4.9
2014-Dec-04 23:33N 41°09' W 072°14'9 8.6
2014-Dec-04 22:33N 41°16' W 072°07'5 5.5
2014-Dec-04 21:33N 41°21' W 072°06'9 9.0
2014-Dec-04 20:33N 41°13' W 072°10'5 5.0
2014-Dec-04 19:33N 41°09' W 072°14'8 8.2
2014-Dec-04 18:33N 41°16' W 072°08'6 5.8
2014-Dec-04 17:33N 41°21' W 072°06'8 8.2
2014-Dec-04 16:33N 41°14' W 072°09'5 4.7
2014-Dec-04 15:34N 41°10' W 072°13'1110.9
2014-Dec-04 14:34N 41°19' W 072°05'0 0.5
2014-Dec-04 13:33N 41°18' W 072°05'1211.6
2014-Dec-04 12:33N 41°09' W 072°14'0 0.0
2014-Dec-04 01:34N 41°09' W 072°14'9 9.0
2014-Dec-04 00:34N 41°16' W 072°07'5 5.2
2014-Dec-03 23:34N 41°21' W 072°06'9 9.2
2014-Dec-03 22:34N 41°13' W 072°11'5 4.7
2014-Dec-03 21:33N 41°09' W 072°14'10 9.8
2014-Dec-03 20:33N 41°17' W 072°06'5 4.6
2014-Dec-03 19:33N 41°21' W 072°06'9 8.6
2014-Dec-03 18:33N 41°13' W 072°10'5 5.4
2014-Dec-03 17:33N 41°09' W 072°14'9 8.5
2014-Dec-03 16:33N 41°16' W 072°07'6 5.6
2014-Dec-03 15:33N 41°21' W 072°06'9 9.2
2014-Dec-03 14:33N 41°13' W 072°10'5 4.7
2014-Dec-03 13:33N 41°09' W 072°14'10 9.7
2014-Dec-03 12:34N 41°17' W 072°06'5 4.6
2014-Dec-03 11:34N 41°21' W 072°06'0 0.0
2014-Dec-03 01:33N 41°21' W 072°05'9 9.0
2014-Dec-03 00:33N 41°14' W 072°12'5 4.9
2014-Dec-02 23:34N 41°09' W 072°14'9 8.7
2014-Dec-02 22:33N 41°16' W 072°07'6 5.5
2014-Dec-02 21:34N 41°21' W 072°05'10 9.6
2014-Dec-02 20:33N 41°13' W 072°12'4 4.2
2014-Dec-02 19:33N 41°09' W 072°14'8 8.2
2014-Dec-02 18:33N 41°16' W 072°08'6 5.9
2014-Dec-02 17:33N 41°21' W 072°06'10 9.6
2014-Dec-02 16:33N 41°13' W 072°11'3 3.3
2014-Dec-02 15:33N 41°10' W 072°13'1211.6
2014-Dec-02 14:33N 41°20' W 072°05'1 1.2
2014-Dec-02 13:33N 41°19' W 072°05'1211.7
2014-Dec-02 12:33N 41°09' W 072°14'0 0.0
2014-Dec-02 01:34N 41°09' W 072°14'9 8.7
2014-Dec-02 00:33N 41°16' W 072°07'5 5.5
2014-Dec-01 23:33N 41°21' W 072°06'0 0.0
2014-Dec-01 22:34N 41°21' W 072°06'9 9.3
2014-Dec-01 21:33N 41°13' W 072°11'5 4.6
2014-Dec-01 20:34N 41°09' W 072°14'9 8.5
2014-Dec-01 19:33N 41°16' W 072°07'6 5.6
2014-Dec-01 18:33N 41°21' W 072°06'9 9.1
2014-Dec-01 17:33N 41°13' W 072°10'5 4.9
2014-Dec-01 16:33N 41°09' W 072°14'9 8.7
2014-Dec-01 15:33N 41°16' W 072°07'5 5.4
2014-Dec-01 14:33N 41°21' W 072°06'9 8.8
2014-Dec-01 13:33N 41°13' W 072°10'5 5.1
2014-Dec-01 12:33N 41°09' W 072°14'0 0.0
2014-Dec-01 03:33N 41°09' W 072°14'7 7.3
2014-Dec-01 02:33N 41°15' W 072°09'7 6.6
2014-Dec-01 01:33N 41°21' W 072°06'10 9.9
2014-Dec-01 00:34N 41°12' W 072°11'4 4.0
2014-Nov-30 23:33N 41°09' W 072°14'10 9.9
2014-Nov-30 22:33N 41°17' W 072°06'4 4.5
2014-Nov-30 21:33N 41°21' W 072°06'9 8.8
2014-Nov-30 20:33N 41°13' W 072°10'5 5.1
2014-Nov-30 19:33N 41°09' W 072°14'8 8.1
2014-Nov-30 18:33N 41°16' W 072°08'6 5.9
2014-Nov-30 17:33N 41°21' W 072°06'9 9.0
2014-Nov-30 16:33N 41°13' W 072°10'5 4.9
2014-Nov-30 15:34N 41°09' W 072°14'9 8.8
2014-Nov-30 14:34N 41°16' W 072°07'5 5.3
2014-Nov-30 13:34N 41°21' W 072°06'9 8.6
2014-Nov-30 12:33N 41°13' W 072°10'5 5.4
2014-Nov-30 11:33N 41°09' W 072°14'0 0.0
2014-Nov-30 03:09N 41°09' W 072°14'5 8.8
2014-Nov-30 02:33N 41°14' W 072°11'9 8.5
2014-Nov-30 01:33N 41°21' W 072°06'8 8.4
2014-Nov-30 00:34N 41°13' W 072°09'6 5.7
2014-Nov-29 23:33N 41°09' W 072°14'9 8.7
2014-Nov-29 22:34N 41°16' W 072°07'5 5.4
2014-Nov-29 21:33N 41°21' W 072°06'9 8.9
2014-Nov-29 20:34N 41°13' W 072°10'5 5.1
2014-Nov-29 19:34N 41°09' W 072°14'10 9.8
2014-Nov-29 18:33N 41°17' W 072°06'4 4.4
2014-Nov-29 17:33N 41°21' W 072°06'1010.0
2014-Nov-29 16:33N 41°12' W 072°11'4 3.8
2014-Nov-29 15:33N 41°09' W 072°14'8 8.1
2014-Nov-29 14:33N 41°16' W 072°08'6 6.0
2014-Nov-29 13:33N 41°21' W 072°06'8 8.4
2014-Nov-29 12:33N 41°13' W 072°09'6 5.7
2014-Nov-29 11:33N 41°09' W 072°14'0 0.0
2014-Nov-29 03:16N 41°09' W 072°14'5 7.5
2014-Nov-29 02:34N 41°14' W 072°11'9 8.5
2014-Nov-29 01:34N 41°21' W 072°06'9 8.8
2014-Nov-29 00:33N 41°13' W 072°10'5 5.1
2014-Nov-28 23:33N 41°09' W 072°14'9 9.3
2014-Nov-28 22:33N 41°16' W 072°07'5 4.9
2014-Nov-28 21:33N 41°21' W 072°06'10 9.8
2014-Nov-28 20:34N 41°12' W 072°11'4 4.1
2014-Nov-28 19:34N 41°09' W 072°14'10 9.7
2014-Nov-28 18:34N 41°17' W 072°06'5 4.5
2014-Nov-28 17:33N 41°21' W 072°06'9 9.0
2014-Nov-28 16:33N 41°13' W 072°10'5 4.9
2014-Nov-28 15:33N 41°09' W 072°14'8 8.4
2014-Nov-28 14:33N 41°16' W 072°08'6 5.7
2014-Nov-28 13:33N 41°21' W 072°06'9 8.7
2014-Nov-28 12:33N 41°13' W 072°10'5 5.3
2014-Nov-28 11:33N 41°09' W 072°14'0 0.0
2014-Nov-28 03:10N 41°09' W 072°14'5 7.7
2014-Nov-28 02:33N 41°13' W 072°11'9 9.1
2014-Nov-28 01:33N 41°21' W 072°06'  

Dump ship's entire track history